Terminal Aerodrome Forecast
Issued by NWS

Home | Current Version | Previous Version | Text Only | Print | Product List | Glossary On
Versions: 1 2 3 4 5 6 7 8 9 10 11 12 13 14
000
FTUS44 KLZK 201700 RRA
TAFPBF
TAF
KPBF 201743Z 2018/2118 17007KT P6SM SCT060 BKN250
     FM210100 15003KT P6SM SCT100 BKN250
     FM210800 15004KT P6SM VCSH SCT040 BKN100
     FM211400 20008KT P6SM VCSH SCT030 BKN060
      TEMPO 2114/2118 5SM SHRA BR BKN030=

USA.gov is the U.S. government's official web portal to all federal, state and local government web resources and services.